KLOUKJVY

Guest
Details From KLOU - BOWMAN FLD
To KJVY - Clark Regional
Flight Number -
Tags generated
Created
Modified
Stats Distance 9 nm / 17 km
Max Altitude 0 ft / 0 m
Waypoints 2
Social Downloads 1
Likes 0
Share VATSIM

Download

Looking for another format? Having issues loading an existing format? Contact us
Advertisement - Login to hide

Notes

Basic altitude profile: - Ascent Rate: 2500ft/min - Ascent Speed: 250kts - Cruise Altitude: 35000ft - Cruise Speed: 420kts - Descent Rate: 1500ft/min - Descent Speed: 250kts Options: - Use NATs: yes - Use PACOTS: yes - Use low airways: yes - Use high airways: no

Route

KLOU KJVY

ID Type Via Altitude (ft/m) Position (lat/lon) Dist (leg/tot) Name
O KLOU APT - 0 / 0 38.22790 / -85.66380 - / 0 nm BOWMAN FLD
O KJVY APT - 0 / 0 38.36560 / -85.73830 8 / 8 nm Clark Regional

Altitude Profile

Advertisement - Login to hide

KLOU

Details ICAO KLOU (LOU)
Name BOWMAN FLD
Region United States
Timezone America/New_York (UTC-5.0)
Stats Elevation 546 ft / 166 m (AMSL)
Location 38.227900° -85.663800°
Runways 2
Magnetic Variation 5.020° W

METAR

KLOU 220653Z AUTO 16003KT 10SM CLR M03/M10 A3047 RMK AO2 SLP322 T10281100

Decode

TAF

Not found

Departure Runways

ID Width Length Bearing (true/mag) Surface Threshold Overrun Markings Lighting
06 75 ft / 23 m 4,351 ft / 1,326 m 59.47° / 64.49° ASPHALT 846 ft / 258 m 0 ft / 0 m APP EDGE THRESHOLD
14 75 ft / 23 m 3,582 ft / 1,092 m 143.73° / 148.75° ASPHALT 207 ft / 63 m 0 ft / 0 m APP EDGE THRESHOLD
24 75 ft / 23 m 4,351 ft / 1,326 m 239.48° / 244.50° ASPHALT 312 ft / 95 m 0 ft / 0 m APP EDGE THRESHOLD REIL-OMNI
32 75 ft / 23 m 3,582 ft / 1,092 m 323.73° / 328.75° ASPHALT 341 ft / 104 m 0 ft / 0 m APP EDGE THRESHOLD REIL-OMNI

KJVY

Details ICAO KJVY
Name Clark Regional
Region United States
Timezone America/Kentucky/Louisville (UTC-5.0)
Stats Elevation 474 ft / 144 m (AMSL)
Location 38.365600° -85.738300°
Runways 2
Magnetic Variation 4.985° W

METAR

KJVY 220715Z AUTO 00000KT 10SM CLR M05/M06 A3046 RMK AO2 T10551061

Decode

TAF

Not found

Destination Runways

ID Width Length Bearing (true/mag) Surface Threshold Overrun Markings Lighting
14 75 ft / 23 m 3,902 ft / 1,189 m 138.10° / 143.09° ASPHALT 0 ft / 0 m 0 ft / 0 m APP EDGE THRESHOLD REIL-OMNI
18 100 ft / 30 m 5,509 ft / 1,679 m 179.98° / 184.97° CONCRETE 0 ft / 0 m 0 ft / 0 m PREC-APP EDGE THRESHOLD MALSR REIL-OMNI
32 75 ft / 23 m 3,902 ft / 1,189 m 318.11° / 323.09° ASPHALT 0 ft / 0 m 0 ft / 0 m NONE EDGE THRESHOLD REIL-OMNI
36 100 ft / 30 m 5,509 ft / 1,679 m 359.98° / 4.97° CONCRETE 0 ft / 0 m 0 ft / 0 m PREC-APP EDGE THRESHOLD REIL-OMNI

Approach Navaids

Runway Type Ident Frequency Range Bearing (true/mag) Slope Elevation
18 OM OM - - 179.99° / 184.97 ° - 474 ft / 144 m (AMSL)
18 MM MM - - 179.99° / 184.97 ° - 474 ft / 144 m (AMSL)
18 LOC-ILS IJVY 111.70 MHz 18 nm / 33 km 179.98° / 184.96 ° - 459 ft / 140 m (AMSL)
18 GS IJVY 111.70 MHz 10 nm / 19 km 180.97° / 185.95 ° 3.00° 462 ft / 141 m (AMSL)